CheckWX is a tool to help pilots better visualize weather data.  It is not intended as a substitute for an official pre-flight weather briefing.

17:07:49 UTC

KFTY METAR
Fulton County-Brown Field Airport
Atlanta, Georgia, USA
Current

1 hour ago

KFTY 211553Z 24004KT 10SM BKN026 OVC034 28/21 A3011 RMK AO2 SLP185 T02780206
Observed
Jul-21 @ 15:53 UTC
Wind
  • 240° at 4 KTS
Visibility
10 SM
Flight Rules
MVFR
Cloud Levels
  • Broken at 2,600' AGL
  • Overcast at 3,400' AGL
Temperature
28°C / 82°F
Dewpoint
21°C / 70°F
Heat Index
30°C / 86°F
Humidity
66%
Altimeter
30.11" Hg
Pressure
1019.62 hPa
Previous

2 hours ago

KFTY 211453Z VRB05KT 10SM BKN018 BKN022 26/21 A3011 RMK AO2 SLP187 T02610206 51007
Observed
Jul-21 @ 14:53 UTC
Wind
  • Variable at 5 KTS
Visibility
10 SM
Flight Rules
MVFR
Cloud Levels
  • Broken at 1,800' AGL
  • Broken at 2,200' AGL
Temperature
26°C / 79°F
Dewpoint
21°C / 70°F
Humidity
74%
Altimeter
30.11" Hg
Pressure
1019.62 hPa
Previous

2 hours ago

KFTY 211442Z VRB05KT 10SM FEW010 BKN016 26/22 A3010 RMK AO2 T02610217
Observed
Jul-21 @ 14:42 UTC
Wind
  • Variable at 5 KTS
Visibility
10 SM
Flight Rules
MVFR
Cloud Levels
  • Few at 1,000' AGL
  • Broken at 1,600' AGL
Temperature
26°C / 79°F
Dewpoint
22°C / 72°F
Humidity
79%
Altimeter
30.1" Hg
Pressure
1019.32 hPa